sensor_id;sensor_type;location;lat;lon;timestamp;temperature;humidity
59923;DHT22;45778;51.142;3.732;2022-11-21T00:01:33;7.20;99.90
59923;DHT22;45778;51.142;3.732;2022-11-21T00:03:59;7.30;99.90
59923;DHT22;45778;51.142;3.732;2022-11-21T00:06:24;7.40;99.90
59923;DHT22;45778;51.142;3.732;2022-11-21T00:08:51;7.30;99.90
59923;DHT22;45778;51.142;3.732;2022-11-21T00:11:17;7.20;99.90
59923;DHT22;45778;51.142;3.732;2022-11-21T00:13:43;7.20;99.90
59923;DHT22;45778;51.142;3.732;2022-11-21T00:16:11;7.10;99.90
59923;DHT22;45778;51.142;3.732;2022-11-21T00:18:37;7.10;99.90
59923;DHT22;45778;51.142;3.732;2022-11-21T00:21:05;7.00;99.90
59923;DHT22;45778;51.142;3.732;2022-11-21T00:23:31;7.00;99.90
59923;DHT22;45778;51.142;3.732;2022-11-21T00:25:57;7.00;99.90
59923;DHT22;45778;51.142;3.732;2022-11-21T00:28:23;7.00;99.90
59923;DHT22;45778;51.142;3.732;2022-11-21T00:30:48;7.00;99.90
59923;DHT22;45778;51.142;3.732;2022-11-21T00:33:14;7.00;99.90
59923;DHT22;45778;51.142;3.732;2022-11-21T00:35:39;7.00;99.90
59923;DHT22;45778;51.142;3.732;2022-11-21T00:38:05;7.00;99.90
59923;DHT22;45778;51.142;3.732;2022-11-21T00:40:31;7.00;99.90
59923;DHT22;45778;51.142;3.732;2022-11-21T00:42:56;7.00;99.90
59923;DHT22;45778;51.142;3.732;2022-11-21T00:45:22;7.00;99.90
59923;DHT22;45778;51.142;3.732;2022-11-21T00:47:48;7.00;99.90
59923;DHT22;45778;51.142;3.732;2022-11-21T00:50:15;7.00;99.90
59923;DHT22;45778;51.142;3.732;2022-11-21T00:52:40;7.10;99.90
59923;DHT22;45778;51.142;3.732;2022-11-21T00:55:06;7.10;99.90
59923;DHT22;45778;51.142;3.732;2022-11-21T00:57:32;7.10;99.90
59923;DHT22;45778;51.142;3.732;2022-11-21T00:59:57;7.10;99.90
59923;DHT22;45778;51.142;3.732;2022-11-21T01:02:23;7.10;99.90
59923;DHT22;45778;51.142;3.732;2022-11-21T01:04:49;7.10;99.90
59923;DHT22;45778;51.142;3.732;2022-11-21T01:07:14;7.20;99.90
59923;DHT22;45778;51.142;3.732;2022-11-21T01:09:40;7.20;99.90
59923;DHT22;45778;51.142;3.732;2022-11-21T01:12:06;7.20;99.90
59923;DHT22;45778;51.142;3.732;2022-11-21T01:14:31;7.10;99.90
59923;DHT22;45778;51.142;3.732;2022-11-21T01:16:57;7.10;99.90
59923;DHT22;45778;51.142;3.732;2022-11-21T01:19:23;7.10;99.90
59923;DHT22;45778;51.142;3.732;2022-11-21T01:21:48;7.10;99.90
59923;DHT22;45778;51.142;3.732;2022-11-21T01:24:14;7.00;99.90
59923;DHT22;45778;51.142;3.732;2022-11-21T01:26:40;7.10;99.90
59923;DHT22;45778;51.142;3.732;2022-11-21T01:29:06;7.00;99.90
59923;DHT22;45778;51.142;3.732;2022-11-21T01:31:33;7.00;99.90
59923;DHT22;45778;51.142;3.732;2022-11-21T01:33:59;7.00;99.90
59923;DHT22;45778;51.142;3.732;2022-11-21T01:36:30;7.00;99.90
59923;DHT22;45778;51.142;3.732;2022-11-21T01:38:58;7.00;99.90
59923;DHT22;45778;51.142;3.732;2022-11-21T01:41:39;7.00;99.90
59923;DHT22;45778;51.142;3.732;2022-11-21T01:47:09;7.00;99.90
59923;DHT22;45778;51.142;3.732;2022-11-21T01:49:36;7.00;99.90
59923;DHT22;45778;51.142;3.732;2022-11-21T01:52:05;7.00;99.90
59923;DHT22;45778;51.142;3.732;2022-11-21T01:54:47;7.00;99.90
59923;DHT22;45778;51.142;3.732;2022-11-21T02:00:30;7.10;99.90
59923;DHT22;45778;51.142;3.732;2022-11-21T02:02:58;7.10;99.90
59923;DHT22;45778;51.142;3.732;2022-11-21T02:05:27;7.20;99.90
59923;DHT22;45778;51.142;3.732;2022-11-21T02:08:02;7.20;99.90
59923;DHT22;45778;51.142;3.732;2022-11-21T02:10:29;7.30;99.90
59923;DHT22;45778;51.142;3.732;2022-11-21T02:12:57;7.40;99.90
59923;DHT22;45778;51.142;3.732;2022-11-21T02:15:25;7.30;99.90
59923;DHT22;45778;51.142;3.732;2022-11-21T02:17:52;7.40;99.90
59923;DHT22;45778;51.142;3.732;2022-11-21T02:20:22;7.40;99.90
59923;DHT22;45778;51.142;3.732;2022-11-21T02:25:28;7.30;99.90
59923;DHT22;45778;51.142;3.732;2022-11-21T02:27:57;7.30;99.90
59923;DHT22;45778;51.142;3.732;2022-11-21T02:30:25;7.20;99.90
59923;DHT22;45778;51.142;3.732;2022-11-21T02:32:52;7.00;99.90
59923;DHT22;45778;51.142;3.732;2022-11-21T02:35:18;7.00;99.90
59923;DHT22;45778;51.142;3.732;2022-11-21T02:37:53;6.90;99.90
59923;DHT22;45778;51.142;3.732;2022-11-21T02:40:24;6.80;99.90
59923;DHT22;45778;51.142;3.732;2022-11-21T02:43:09;6.80;99.90
59923;DHT22;45778;51.142;3.732;2022-11-21T02:45:42;6.80;99.90
59923;DHT22;45778;51.142;3.732;2022-11-21T02:48:08;6.80;99.90
59923;DHT22;45778;51.142;3.732;2022-11-21T02:50:35;6.80;99.90
59923;DHT22;45778;51.142;3.732;2022-11-21T02:53:03;6.90;99.90
59923;DHT22;45778;51.142;3.732;2022-11-21T02:55:29;6.90;99.90
59923;DHT22;45778;51.142;3.732;2022-11-21T02:57:55;6.90;99.90
59923;DHT22;45778;51.142;3.732;2022-11-21T03:00:21;7.00;99.90
59923;DHT22;45778;51.142;3.732;2022-11-21T03:02:47;6.90;99.90
59923;DHT22;45778;51.142;3.732;2022-11-21T03:05:14;6.80;99.90
59923;DHT22;45778;51.142;3.732;2022-11-21T03:07:41;6.70;99.90
59923;DHT22;45778;51.142;3.732;2022-11-21T03:10:07;6.60;99.90
59923;DHT22;45778;51.142;3.732;2022-11-21T03:12:35;6.60;99.90
59923;DHT22;45778;51.142;3.732;2022-11-21T03:15:01;6.60;99.90
59923;DHT22;45778;51.142;3.732;2022-11-21T03:17:27;6.60;99.90
59923;DHT22;45778;51.142;3.732;2022-11-21T03:19:53;6.60;99.90
59923;DHT22;45778;51.142;3.732;2022-11-21T03:22:18;6.50;99.90
59923;DHT22;45778;51.142;3.732;2022-11-21T03:24:44;6.50;99.90
59923;DHT22;45778;51.142;3.732;2022-11-21T03:27:10;6.50;99.90
59923;DHT22;45778;51.142;3.732;2022-11-21T03:29:36;6.50;99.90
59923;DHT22;45778;51.142;3.732;2022-11-21T03:32:01;6.40;99.90
59923;DHT22;45778;51.142;3.732;2022-11-21T03:34:27;6.40;99.90
59923;DHT22;45778;51.142;3.732;2022-11-21T03:36:53;6.30;99.90
59923;DHT22;45778;51.142;3.732;2022-11-21T03:39:18;6.30;99.90
59923;DHT22;45778;51.142;3.732;2022-11-21T03:41:44;6.20;99.90
59923;DHT22;45778;51.142;3.732;2022-11-21T03:44:11;6.20;99.90
59923;DHT22;45778;51.142;3.732;2022-11-21T03:46:39;6.10;99.90
59923;DHT22;45778;51.142;3.732;2022-11-21T03:49:05;6.10;99.90
59923;DHT22;45778;51.142;3.732;2022-11-21T03:51:32;5.90;99.90
59923;DHT22;45778;51.142;3.732;2022-11-21T03:53:58;5.80;99.90
59923;DHT22;45778;51.142;3.732;2022-11-21T03:56:25;5.70;99.90
59923;DHT22;45778;51.142;3.732;2022-11-21T03:58:51;5.60;99.90
59923;DHT22;45778;51.142;3.732;2022-11-21T04:01:16;5.50;99.90
59923;DHT22;45778;51.142;3.732;2022-11-21T04:03:43;5.40;99.90
59923;DHT22;45778;51.142;3.732;2022-11-21T04:06:13;5.40;99.90
59923;DHT22;45778;51.142;3.732;2022-11-21T04:08:39;5.40;99.90
59923;DHT22;45778;51.142;3.732;2022-11-21T04:11:05;5.30;99.90
59923;DHT22;45778;51.142;3.732;2022-11-21T04:13:31;5.30;99.90
59923;DHT22;45778;51.142;3.732;2022-11-21T04:15:57;5.40;99.90
59923;DHT22;45778;51.142;3.732;2022-11-21T04:18:23;5.20;99.90
59923;DHT22;45778;51.142;3.732;2022-11-21T04:20:54;5.20;99.90
59923;DHT22;45778;51.142;3.732;2022-11-21T04:23:19;5.20;99.90
59923;DHT22;45778;51.142;3.732;2022-11-21T04:25:45;5.10;99.90
59923;DHT22;45778;51.142;3.732;2022-11-21T04:28:11;5.10;99.90
59923;DHT22;45778;51.142;3.732;2022-11-21T04:30:38;5.00;99.90
59923;DHT22;45778;51.142;3.732;2022-11-21T04:33:04;5.00;99.90
59923;DHT22;45778;51.142;3.732;2022-11-21T04:35:29;5.00;99.90
59923;DHT22;45778;51.142;3.732;2022-11-21T04:37:55;5.00;99.90
59923;DHT22;45778;51.142;3.732;2022-11-21T04:40:21;5.00;99.90
59923;DHT22;45778;51.142;3.732;2022-11-21T04:42:47;4.90;99.90
59923;DHT22;45778;51.142;3.732;2022-11-21T04:45:14;4.90;99.90
59923;DHT22;45778;51.142;3.732;2022-11-21T04:47:42;5.00;99.90
59923;DHT22;45778;51.142;3.732;2022-11-21T04:50:10;5.00;99.90
59923;DHT22;45778;51.142;3.732;2022-11-21T04:52:35;5.10;99.90
59923;DHT22;45778;51.142;3.732;2022-11-21T04:55:02;5.10;99.90
59923;DHT22;45778;51.142;3.732;2022-11-21T04:57:28;5.10;99.90
59923;DHT22;45778;51.142;3.732;2022-11-21T04:59:55;5.20;99.90
59923;DHT22;45778;51.142;3.732;2022-11-21T05:02:21;5.30;99.90
59923;DHT22;45778;51.142;3.732;2022-11-21T05:04:47;5.20;99.90
59923;DHT22;45778;51.142;3.732;2022-11-21T05:07:13;5.20;99.90
59923;DHT22;45778;51.142;3.732;2022-11-21T05:09:39;5.30;99.90
59923;DHT22;45778;51.142;3.732;2022-11-21T05:12:05;5.30;99.90
59923;DHT22;45778;51.142;3.732;2022-11-21T05:14:49;5.20;99.90
59923;DHT22;45778;51.142;3.732;2022-11-21T05:17:15;5.20;99.90
59923;DHT22;45778;51.142;3.732;2022-11-21T05:19:40;5.20;99.90
59923;DHT22;45778;51.142;3.732;2022-11-21T05:22:06;5.10;99.90
59923;DHT22;45778;51.142;3.732;2022-11-21T05:24:32;5.10;99.90
59923;DHT22;45778;51.142;3.732;2022-11-21T05:26:58;5.10;99.90
59923;DHT22;45778;51.142;3.732;2022-11-21T05:29:23;5.00;99.90
59923;DHT22;45778;51.142;3.732;2022-11-21T05:31:49;5.00;99.90
59923;DHT22;45778;51.142;3.732;2022-11-21T05:34:15;5.10;99.90
59923;DHT22;45778;51.142;3.732;2022-11-21T05:36:40;5.10;99.90
59923;DHT22;45778;51.142;3.732;2022-11-21T05:39:06;5.00;99.90
59923;DHT22;45778;51.142;3.732;2022-11-21T05:41:32;5.00;99.90
59923;DHT22;45778;51.142;3.732;2022-11-21T05:43:57;5.00;99.90
59923;DHT22;45778;51.142;3.732;2022-11-21T05:46:24;5.00;99.90
59923;DHT22;45778;51.142;3.732;2022-11-21T05:48:51;5.00;99.90
59923;DHT22;45778;51.142;3.732;2022-11-21T05:51:17;5.00;99.90
59923;DHT22;45778;51.142;3.732;2022-11-21T05:53:45;4.90;99.90
59923;DHT22;45778;51.142;3.732;2022-11-21T05:56:14;4.90;99.90
59923;DHT22;45778;51.142;3.732;2022-11-21T05:58:40;5.00;99.90
59923;DHT22;45778;51.142;3.732;2022-11-21T06:01:08;4.90;99.90
59923;DHT22;45778;51.142;3.732;2022-11-21T06:03:37;4.90;99.90
59923;DHT22;45778;51.142;3.732;2022-11-21T06:06:08;4.90;99.90
59923;DHT22;45778;51.142;3.732;2022-11-21T06:08:40;4.90;99.90
59923;DHT22;45778;51.142;3.732;2022-11-21T06:11:08;4.90;99.90
59923;DHT22;45778;51.142;3.732;2022-11-21T06:13:34;4.90;99.90
59923;DHT22;45778;51.142;3.732;2022-11-21T06:18:29;4.80;99.90
59923;DHT22;45778;51.142;3.732;2022-11-21T06:23:30;4.80;99.90
59923;DHT22;45778;51.142;3.732;2022-11-21T06:25:57;4.80;99.90
59923;DHT22;45778;51.142;3.732;2022-11-21T06:28:31;4.80;99.90
59923;DHT22;45778;51.142;3.732;2022-11-21T06:33:33;4.90;99.90
59923;DHT22;45778;51.142;3.732;2022-11-21T06:36:10;4.90;99.90
59923;DHT22;45778;51.142;3.732;2022-11-21T06:38:36;4.90;99.90
59923;DHT22;45778;51.142;3.732;2022-11-21T06:41:19;4.80;99.90
59923;DHT22;45778;51.142;3.732;2022-11-21T06:43:45;4.70;99.90
59923;DHT22;45778;51.142;3.732;2022-11-21T06:46:12;4.70;99.90
59923;DHT22;45778;51.142;3.732;2022-11-21T06:48:38;4.60;99.90
59923;DHT22;45778;51.142;3.732;2022-11-21T06:51:05;4.60;99.90
59923;DHT22;45778;51.142;3.732;2022-11-21T06:53:32;4.50;99.90
59923;DHT22;45778;51.142;3.732;2022-11-21T06:55:59;4.50;99.90
59923;DHT22;45778;51.142;3.732;2022-11-21T06:58:25;4.40;99.90
59923;DHT22;45778;51.142;3.732;2022-11-21T07:00:50;4.50;99.90
59923;DHT22;45778;51.142;3.732;2022-11-21T07:03:16;4.40;99.90
59923;DHT22;45778;51.142;3.732;2022-11-21T07:05:42;4.40;99.90
59923;DHT22;45778;51.142;3.732;2022-11-21T07:08:08;4.40;99.90
59923;DHT22;45778;51.142;3.732;2022-11-21T07:10:34;4.30;99.90
59923;DHT22;45778;51.142;3.732;2022-11-21T07:13:00;4.30;99.90
59923;DHT22;45778;51.142;3.732;2022-11-21T07:15:45;4.40;99.90
59923;DHT22;45778;51.142;3.732;2022-11-21T07:18:11;4.50;99.90
59923;DHT22;45778;51.142;3.732;2022-11-21T07:20:37;4.50;99.90
59923;DHT22;45778;51.142;3.732;2022-11-21T07:23:03;4.50;99.90
59923;DHT22;45778;51.142;3.732;2022-11-21T07:25:29;4.60;99.90
59923;DHT22;45778;51.142;3.732;2022-11-21T07:27:58;4.70;99.90
59923;DHT22;45778;51.142;3.732;2022-11-21T07:30:24;4.70;99.90
59923;DHT22;45778;51.142;3.732;2022-11-21T07:32:57;4.70;99.90
59923;DHT22;45778;51.142;3.732;2022-11-21T07:35:23;4.80;99.90
59923;DHT22;45778;51.142;3.732;2022-11-21T07:37:49;4.70;99.90
59923;DHT22;45778;51.142;3.732;2022-11-21T07:40:15;4.70;99.90
59923;DHT22;45778;51.142;3.732;2022-11-21T07:42:41;4.70;99.90
59923;DHT22;45778;51.142;3.732;2022-11-21T07:45:07;4.80;99.90
59923;DHT22;45778;51.142;3.732;2022-11-21T07:47:33;4.80;99.90
59923;DHT22;45778;51.142;3.732;2022-11-21T07:49:59;4.80;99.90
59923;DHT22;45778;51.142;3.732;2022-11-21T07:52:24;4.80;99.90
59923;DHT22;45778;51.142;3.732;2022-11-21T07:54:50;4.80;99.90
59923;DHT22;45778;51.142;3.732;2022-11-21T07:57:16;4.90;99.90
59923;DHT22;45778;51.142;3.732;2022-11-21T07:59:42;5.00;99.90
59923;DHT22;45778;51.142;3.732;2022-11-21T08:02:17;4.80;99.90
59923;DHT22;45778;51.142;3.732;2022-11-21T08:04:43;5.00;99.90
59923;DHT22;45778;51.142;3.732;2022-11-21T08:07:09;5.10;99.90
59923;DHT22;45778;51.142;3.732;2022-11-21T08:09:35;5.00;99.90
59923;DHT22;45778;51.142;3.732;2022-11-21T08:12:02;4.90;99.90
59923;DHT22;45778;51.142;3.732;2022-11-21T08:14:28;5.00;99.90
59923;DHT22;45778;51.142;3.732;2022-11-21T08:16:53;5.10;99.90
59923;DHT22;45778;51.142;3.732;2022-11-21T08:19:19;5.00;99.90
59923;DHT22;45778;51.142;3.732;2022-11-21T08:21:45;5.10;99.90
59923;DHT22;45778;51.142;3.732;2022-11-21T08:24:10;5.20;99.90
59923;DHT22;45778;51.142;3.732;2022-11-21T08:26:39;5.30;99.90
59923;DHT22;45778;51.142;3.732;2022-11-21T08:29:05;5.40;99.90
59923;DHT22;45778;51.142;3.732;2022-11-21T08:31:31;5.40;99.90
59923;DHT22;45778;51.142;3.732;2022-11-21T08:33:57;5.50;99.90
59923;DHT22;45778;51.142;3.732;2022-11-21T08:36:23;5.50;99.90
59923;DHT22;45778;51.142;3.732;2022-11-21T08:38:49;5.60;99.90
59923;DHT22;45778;51.142;3.732;2022-11-21T08:41:15;5.80;99.90
59923;DHT22;45778;51.142;3.732;2022-11-21T08:43:59;5.80;99.90
59923;DHT22;45778;51.142;3.732;2022-11-21T08:46:24;5.90;99.90
59923;DHT22;45778;51.142;3.732;2022-11-21T08:48:53;6.10;99.90
59923;DHT22;45778;51.142;3.732;2022-11-21T08:51:20;6.20;99.90
59923;DHT22;45778;51.142;3.732;2022-11-21T08:53:46;6.30;99.90
59923;DHT22;45778;51.142;3.732;2022-11-21T08:56:11;6.50;99.90
59923;DHT22;45778;51.142;3.732;2022-11-21T08:58:38;6.40;99.90
59923;DHT22;45778;51.142;3.732;2022-11-21T09:01:04;6.50;99.90
59923;DHT22;45778;51.142;3.732;2022-11-21T09:03:30;6.60;99.90
59923;DHT22;45778;51.142;3.732;2022-11-21T09:05:57;6.50;99.90
59923;DHT22;45778;51.142;3.732;2022-11-21T09:08:23;6.70;99.90
59923;DHT22;45778;51.142;3.732;2022-11-21T09:10:49;6.80;99.90
59923;DHT22;45778;51.142;3.732;2022-11-21T09:13:15;7.00;99.90
59923;DHT22;45778;51.142;3.732;2022-11-21T09:15:40;7.20;99.90
59923;DHT22;45778;51.142;3.732;2022-11-21T09:18:24;7.40;99.90
59923;DHT22;45778;51.142;3.732;2022-11-21T09:20:50;7.50;99.90
59923;DHT22;45778;51.142;3.732;2022-11-21T09:23:16;7.40;99.90
59923;DHT22;45778;51.142;3.732;2022-11-21T09:25:42;7.40;99.90
59923;DHT22;45778;51.142;3.732;2022-11-21T09:28:10;7.60;99.90
59923;DHT22;45778;51.142;3.732;2022-11-21T09:30:36;7.80;99.90
59923;DHT22;45778;51.142;3.732;2022-11-21T09:33:08;7.80;99.90
59923;DHT22;45778;51.142;3.732;2022-11-21T09:35:35;7.80;99.90
59923;DHT22;45778;51.142;3.732;2022-11-21T09:38:01;7.80;99.90
59923;DHT22;45778;51.142;3.732;2022-11-21T09:40:28;8.00;99.90
59923;DHT22;45778;51.142;3.732;2022-11-21T09:43:17;8.00;99.90
59923;DHT22;45778;51.142;3.732;2022-11-21T09:46:14;7.90;99.90
59923;DHT22;45778;51.142;3.732;2022-11-21T09:48:50;8.10;99.90
59923;DHT22;45778;51.142;3.732;2022-11-21T09:51:18;8.10;99.90
59923;DHT22;45778;51.142;3.732;2022-11-21T09:53:49;8.10;99.90
59923;DHT22;45778;51.142;3.732;2022-11-21T09:56:16;8.00;99.90
59923;DHT22;45778;51.142;3.732;2022-11-21T10:01:44;8.00;99.90
59923;DHT22;45778;51.142;3.732;2022-11-21T10:04:10;8.00;99.90
59923;DHT22;45778;51.142;3.732;2022-11-21T10:06:42;7.90;99.90
59923;DHT22;45778;51.142;3.732;2022-11-21T10:09:47;8.00;99.90
59923;DHT22;45778;51.142;3.732;2022-11-21T10:12:18;7.90;99.90
59923;DHT22;45778;51.142;3.732;2022-11-21T10:20:21;7.90;99.90
59923;DHT22;45778;51.142;3.732;2022-11-21T10:23:33;7.90;99.90
59923;DHT22;45778;51.142;3.732;2022-11-21T10:26:28;7.90;99.90
59923;DHT22;45778;51.142;3.732;2022-11-21T10:29:03;8.00;99.90
59923;DHT22;45778;51.142;3.732;2022-11-21T10:31:37;8.10;99.90
59923;DHT22;45778;51.142;3.732;2022-11-21T10:34:14;8.20;99.90
59923;DHT22;45778;51.142;3.732;2022-11-21T10:36:42;8.10;99.90
59923;DHT22;45778;51.142;3.732;2022-11-21T10:39:22;8.20;99.90
59923;DHT22;45778;51.142;3.732;2022-11-21T10:44:42;8.20;99.90
59923;DHT22;45778;51.142;3.732;2022-11-21T10:47:32;8.40;99.90
59923;DHT22;45778;51.142;3.732;2022-11-21T10:56:01;8.40;99.90
59923;DHT22;45778;51.142;3.732;2022-11-21T10:58:53;8.40;99.90
59923;DHT22;45778;51.142;3.732;2022-11-21T11:01:31;8.40;99.90
59923;DHT22;45778;51.142;3.732;2022-11-21T11:06:40;8.30;99.90
59923;DHT22;45778;51.142;3.732;2022-11-21T11:09:20;8.30;99.90
59923;DHT22;45778;51.142;3.732;2022-11-21T11:11:46;8.30;99.90
59923;DHT22;45778;51.142;3.732;2022-11-21T11:14:12;8.20;99.90
59923;DHT22;45778;51.142;3.732;2022-11-21T11:16:46;8.60;99.90
59923;DHT22;45778;51.142;3.732;2022-11-21T11:29:27;8.30;99.90
59923;DHT22;45778;51.142;3.732;2022-11-21T11:34:25;8.20;99.90
59923;DHT22;45778;51.142;3.732;2022-11-21T11:37:03;8.10;99.90
59923;DHT22;45778;51.142;3.732;2022-11-21T11:39:43;8.20;99.90
59923;DHT22;45778;51.142;3.732;2022-11-21T11:48:03;8.10;99.90
59923;DHT22;45778;51.142;3.732;2022-11-21T11:50:43;8.10;99.90
59923;DHT22;45778;51.142;3.732;2022-11-21T11:53:18;8.30;99.90
59923;DHT22;45778;51.142;3.732;2022-11-21T11:56:04;8.40;99.90
59923;DHT22;45778;51.142;3.732;2022-11-21T11:58:39;8.40;99.90
59923;DHT22;45778;51.142;3.732;2022-11-21T12:06:11;8.00;99.90
59923;DHT22;45778;51.142;3.732;2022-11-21T12:08:45;8.00;99.90
59923;DHT22;45778;51.142;3.732;2022-11-21T12:11:52;7.90;99.90
59923;DHT22;45778;51.142;3.732;2022-11-21T12:21:03;8.30;99.90
59923;DHT22;45778;51.142;3.732;2022-11-21T12:23:48;8.30;99.90
59923;DHT22;45778;51.142;3.732;2022-11-21T12:37:47;8.30;99.90
59923;DHT22;45778;51.142;3.732;2022-11-21T12:41:05;8.30;99.90
59923;DHT22;45778;51.142;3.732;2022-11-21T12:43:48;8.30;99.90
59923;DHT22;45778;51.142;3.732;2022-11-21T12:52:22;8.30;99.90
59923;DHT22;45778;51.142;3.732;2022-11-21T12:58:12;8.40;99.90
59923;DHT22;45778;51.142;3.732;2022-11-21T13:01:07;8.40;99.90
59923;DHT22;45778;51.142;3.732;2022-11-21T13:06:26;8.40;99.90
59923;DHT22;45778;51.142;3.732;2022-11-21T13:08:54;8.50;99.90
59923;DHT22;45778;51.142;3.732;2022-11-21T13:11:29;8.50;99.90
59923;DHT22;45778;51.142;3.732;2022-11-21T13:14:26;8.40;99.90
59923;DHT22;45778;51.142;3.732;2022-11-21T13:20:30;8.50;99.90
59923;DHT22;45778;51.142;3.732;2022-11-21T13:23:00;8.60;99.90
59923;DHT22;45778;51.142;3.732;2022-11-21T13:30:56;8.60;99.90
59923;DHT22;45778;51.142;3.732;2022-11-21T13:58:02;8.80;99.90
59923;DHT22;45778;51.142;3.732;2022-11-21T14:03:14;8.90;99.90
59923;DHT22;45778;51.142;3.732;2022-11-21T14:08:30;9.00;99.90
59923;DHT22;45778;51.142;3.732;2022-11-21T14:10:56;8.90;99.90
59923;DHT22;45778;51.142;3.732;2022-11-21T14:13:35;8.90;99.90
59923;DHT22;45778;51.142;3.732;2022-11-21T14:16:20;8.90;99.90
59923;DHT22;45778;51.142;3.732;2022-11-21T14:18:48;9.00;99.90
59923;DHT22;45778;51.142;3.732;2022-11-21T14:21:23;9.00;99.90
59923;DHT22;45778;51.142;3.732;2022-11-21T14:23:56;9.00;99.90
59923;DHT22;45778;51.142;3.732;2022-11-21T14:26:23;9.10;99.90
59923;DHT22;45778;51.142;3.732;2022-11-21T14:28:50;8.90;99.90
59923;DHT22;45778;51.142;3.732;2022-11-21T14:31:16;8.90;99.90
59923;DHT22;45778;51.142;3.732;2022-11-21T14:33:44;9.00;99.90
59923;DHT22;45778;51.142;3.732;2022-11-21T14:39:00;8.90;99.90
59923;DHT22;45778;51.142;3.732;2022-11-21T14:41:34;8.90;99.90
59923;DHT22;45778;51.142;3.732;2022-11-21T14:44:04;8.90;99.90
59923;DHT22;45778;51.142;3.732;2022-11-21T14:46:38;9.00;99.90
59923;DHT22;45778;51.142;3.732;2022-11-21T14:51:57;9.00;99.90
59923;DHT22;45778;51.142;3.732;2022-11-21T14:54:31;8.80;99.90
59923;DHT22;45778;51.142;3.732;2022-11-21T14:56:59;8.90;99.90
59923;DHT22;45778;51.142;3.732;2022-11-21T14:59:32;9.10;99.90
59923;DHT22;45778;51.142;3.732;2022-11-21T15:02:03;8.90;99.90
59923;DHT22;45778;51.142;3.732;2022-11-21T15:04:34;8.70;99.90
59923;DHT22;45778;51.142;3.732;2022-11-21T15:07:00;8.80;99.90
59923;DHT22;45778;51.142;3.732;2022-11-21T15:09:26;8.90;99.90
59923;DHT22;45778;51.142;3.732;2022-11-21T15:14:43;8.70;99.90
59923;DHT22;45778;51.142;3.732;2022-11-21T15:17:13;8.70;99.90
59923;DHT22;45778;51.142;3.732;2022-11-21T15:19:41;8.70;99.90
59923;DHT22;45778;51.142;3.732;2022-11-21T15:22:29;8.60;99.90
59923;DHT22;45778;51.142;3.732;2022-11-21T15:25:22;8.60;99.90
59923;DHT22;45778;51.142;3.732;2022-11-21T15:38:19;8.60;99.90
59923;DHT22;45778;51.142;3.732;2022-11-21T15:46:18;8.50;99.90
59923;DHT22;45778;51.142;3.732;2022-11-21T15:48:51;8.50;99.90
59923;DHT22;45778;51.142;3.732;2022-11-21T15:51:19;8.60;99.90
59923;DHT22;45778;51.142;3.732;2022-11-21T15:53:46;8.50;99.90
59923;DHT22;45778;51.142;3.732;2022-11-21T15:56:14;8.40;99.90
59923;DHT22;45778;51.142;3.732;2022-11-21T15:58:40;8.40;99.90
59923;DHT22;45778;51.142;3.732;2022-11-21T16:01:14;8.40;99.90
59923;DHT22;45778;51.142;3.732;2022-11-21T16:03:40;8.40;99.90
59923;DHT22;45778;51.142;3.732;2022-11-21T16:06:06;8.30;99.90
59923;DHT22;45778;51.142;3.732;2022-11-21T16:08:32;8.30;99.90
59923;DHT22;45778;51.142;3.732;2022-11-21T16:10:57;8.30;99.90
59923;DHT22;45778;51.142;3.732;2022-11-21T16:13:24;8.30;99.90
59923;DHT22;45778;51.142;3.732;2022-11-21T16:15:50;8.20;99.90
59923;DHT22;45778;51.142;3.732;2022-11-21T16:18:15;8.30;99.90
59923;DHT22;45778;51.142;3.732;2022-11-21T16:20:41;8.30;99.90
59923;DHT22;45778;51.142;3.732;2022-11-21T16:23:11;8.30;99.90
59923;DHT22;45778;51.142;3.732;2022-11-21T16:25:37;8.20;99.90
59923;DHT22;45778;51.142;3.732;2022-11-21T16:28:03;8.20;99.90
59923;DHT22;45778;51.142;3.732;2022-11-21T16:30:29;8.20;99.90
59923;DHT22;45778;51.142;3.732;2022-11-21T16:32:54;8.20;99.90
59923;DHT22;45778;51.142;3.732;2022-11-21T16:35:23;8.10;99.90
59923;DHT22;45778;51.142;3.732;2022-11-21T16:37:52;8.20;99.90
59923;DHT22;45778;51.142;3.732;2022-11-21T16:40:18;8.10;99.90
59923;DHT22;45778;51.142;3.732;2022-11-21T16:42:43;8.20;99.90
59923;DHT22;45778;51.142;3.732;2022-11-21T16:45:09;8.20;99.90
59923;DHT22;45778;51.142;3.732;2022-11-21T16:47:36;8.10;99.90
59923;DHT22;45778;51.142;3.732;2022-11-21T16:50:03;8.10;99.90
59923;DHT22;45778;51.142;3.732;2022-11-21T16:52:32;8.00;99.90
59923;DHT22;45778;51.142;3.732;2022-11-21T16:54:59;8.10;99.90
59923;DHT22;45778;51.142;3.732;2022-11-21T16:57:26;8.10;99.90
59923;DHT22;45778;51.142;3.732;2022-11-21T16:59:52;8.20;99.90
59923;DHT22;45778;51.142;3.732;2022-11-21T17:02:17;8.10;99.90
59923;DHT22;45778;51.142;3.732;2022-11-21T17:04:43;8.10;99.90
59923;DHT22;45778;51.142;3.732;2022-11-21T17:07:09;8.00;99.90
59923;DHT22;45778;51.142;3.732;2022-11-21T17:09:34;8.00;99.90
59923;DHT22;45778;51.142;3.732;2022-11-21T17:12:00;8.00;99.90
59923;DHT22;45778;51.142;3.732;2022-11-21T17:14:26;8.00;99.90
59923;DHT22;45778;51.142;3.732;2022-11-21T17:16:52;7.90;99.90
59923;DHT22;45778;51.142;3.732;2022-11-21T17:19:17;7.90;99.90
59923;DHT22;45778;51.142;3.732;2022-11-21T17:21:43;8.00;99.90
59923;DHT22;45778;51.142;3.732;2022-11-21T17:24:11;7.90;99.90
59923;DHT22;45778;51.142;3.732;2022-11-21T17:26:37;7.90;99.90
59923;DHT22;45778;51.142;3.732;2022-11-21T17:29:03;7.90;99.90
59923;DHT22;45778;51.142;3.732;2022-11-21T17:31:30;7.90;99.90
59923;DHT22;45778;51.142;3.732;2022-11-21T17:33:57;7.90;99.90
59923;DHT22;45778;51.142;3.732;2022-11-21T17:36:25;7.90;99.90
59923;DHT22;45778;51.142;3.732;2022-11-21T17:38:51;7.90;99.90
59923;DHT22;45778;51.142;3.732;2022-11-21T17:41:18;7.90;99.90
59923;DHT22;45778;51.142;3.732;2022-11-21T17:43:45;7.80;99.90
59923;DHT22;45778;51.142;3.732;2022-11-21T17:46:16;7.70;99.90
59923;DHT22;45778;51.142;3.732;2022-11-21T17:48:43;7.80;99.90
59923;DHT22;45778;51.142;3.732;2022-11-21T17:51:18;7.70;99.90
59923;DHT22;45778;51.142;3.732;2022-11-21T17:53:47;7.70;99.90
59923;DHT22;45778;51.142;3.732;2022-11-21T17:56:18;7.80;99.90
59923;DHT22;45778;51.142;3.732;2022-11-21T17:58:44;7.80;99.90
59923;DHT22;45778;51.142;3.732;2022-11-21T18:01:11;7.70;99.90
59923;DHT22;45778;51.142;3.732;2022-11-21T18:03:46;7.70;99.90
59923;DHT22;45778;51.142;3.732;2022-11-21T18:06:15;7.70;99.90
59923;DHT22;45778;51.142;3.732;2022-11-21T18:08:42;7.70;99.90
59923;DHT22;45778;51.142;3.732;2022-11-21T18:11:10;7.70;99.90
59923;DHT22;45778;51.142;3.732;2022-11-21T18:13:37;7.70;99.90
59923;DHT22;45778;51.142;3.732;2022-11-21T18:16:08;7.60;99.90
59923;DHT22;45778;51.142;3.732;2022-11-21T18:18:35;7.60;99.90
59923;DHT22;45778;51.142;3.732;2022-11-21T18:21:07;7.60;99.90
59923;DHT22;45778;51.142;3.732;2022-11-21T18:23:33;7.60;99.90
59923;DHT22;45778;51.142;3.732;2022-11-21T18:26:10;7.60;99.90
59923;DHT22;45778;51.142;3.732;2022-11-21T18:28:36;7.50;99.90
59923;DHT22;45778;51.142;3.732;2022-11-21T18:31:06;7.60;99.90